Time;durP1;ratioP1;P1;durP2;ratioP2;P2;SDS_P1;SDS_P2;PMS_P1;PMS_P2;Temp;Humidity;BMP_temperature;BMP_pressure;BME280_temperature;BME280_humidity;BME280_pressure;Samples;Min_cycle;Max_cycle;Signal;HPM_P1;HPM_P2
2022/08/11 00:02:16;;;;;;;8.30;3.30;;;;;;;;;;5034280;28;20148;-55
2022/08/11 00:04:42;;;;;;;8.48;3.40;;;;;;;;;;5055513;28;20032;-55
2022/08/11 00:07:09;;;;;;;6.00;3.08;;;;;;;;;;5058948;28;20027;-52
2022/08/11 00:09:36;;;;;;;5.10;2.97;;;;;;;;;;5059443;28;20071;-60
2022/08/11 00:12:04;;;;;;;6.45;3.00;;;;;;;;;;5032993;28;20021;-52
2022/08/11 00:14:31;;;;;;;11.02;4.38;;;;;;;;;;5054052;28;20143;-53
2022/08/11 00:16:59;;;;;;;6.13;3.17;;;;;;;;;;5054614;28;20063;-51
2022/08/11 00:19:27;;;;;;;7.88;3.15;;;;;;;;;;5054083;28;20025;-52
2022/08/11 00:21:53;;;;;;;4.88;3.03;;;;;;;;;;5054520;28;20087;-53
2022/08/11 00:24:20;;;;;;;6.25;3.10;;;;;;;;;;5035964;28;20033;-57
2022/08/11 00:26:52;;;;;;;6.10;3.20;;;;;;;;;;5061344;28;20079;-52
2022/08/11 00:29:20;;;;;;;5.55;3.20;;;;;;;;;;5060158;28;20384;-53
2022/08/11 00:31:55;;;;;;;6.18;3.10;;;;;;;;;;5061611;28;20373;-56
2022/08/11 00:34:24;;;;;;;7.22;3.72;;;;;;;;;;5053941;28;20496;-56
2022/08/11 00:37:01;;;;;;;7.40;3.22;;;;;;;;;;5053895;28;20033;-52
2022/08/11 00:39:28;;;;;;;5.70;3.22;;;;;;;;;;5054058;28;20035;-55
2022/08/11 00:41:54;;;;;;;;;;;;;;;;;;5060118;28;20556;-52
2022/08/11 00:44:32;;;;;;;3.40;2.40;;;;;;;;;;5058254;28;19913;-53
2022/08/11 00:47:02;;;;;;;16.67;3.05;;;;;;;;;;5054300;28;20064;-52
2022/08/11 00:49:57;;;;;;;6.35;2.65;;;;;;;;;;5053856;28;20028;-56
2022/08/11 00:52:49;;;;;;;8.80;3.58;;;;;;;;;;4982550;28;20101;-52
2022/08/11 00:55:34;;;;;;;7.03;2.83;;;;;;;;;;5023561;28;20033;-52
2022/08/11 00:58:01;;;;;;;5.97;2.72;;;;;;;;;;5056901;28;20033;-56
2022/08/11 01:00:31;;;;;;;9.93;3.20;;;;;;;;;;5053846;28;20438;-52
2022/08/11 01:03:09;;;;;;;6.55;3.25;;;;;;;;;;5058173;28;20036;-51
2022/08/11 01:05:41;;;;;;;4.88;2.85;;;;;;;;;;5055426;28;20100;-52
2022/08/11 01:08:17;;;;;;;11.25;2.72;;;;;;;;;;5054728;28;20376;-52
2022/08/11 01:10:43;;;;;;;7.45;3.00;;;;;;;;;;5043129;28;20036;-52
2022/08/11 01:13:12;;;;;;;5.00;3.40;;;;;;;;;;5056450;28;20120;-54
2022/08/11 01:15:47;;;;;;;7.90;3.13;;;;;;;;;;5035313;28;20116;-54
2022/08/11 01:18:40;;;;;;;5.10;3.10;;;;;;;;;;5035698;28;20033;-53
2022/08/11 01:21:06;;;;;;;5.20;2.90;;;;;;;;;;5053260;28;20029;-53
2022/08/11 01:23:44;;;;;;;8.98;3.60;;;;;;;;;;5064257;28;20028;-55
2022/08/11 01:26:25;;;;;;;4.68;3.17;;;;;;;;;;5052249;28;20039;-57
2022/08/11 01:29:07;;;;;;;10.23;3.97;;;;;;;;;;5056750;28;20025;-52
2022/08/11 01:31:45;;;;;;;7.35;3.13;;;;;;;;;;5053427;28;20517;-53
2022/08/11 01:34:40;;;;;;;3.80;3.05;;;;;;;;;;5052817;28;20028;-51
2022/08/11 01:37:39;;;;;;;7.25;3.63;;;;;;;;;;4980945;28;20552;-57
2022/08/11 01:40:23;;;;;;;10.27;3.30;;;;;;;;;;5008303;28;20037;-58
2022/08/11 01:45:55;;;;;;;7.97;3.72;;;;;;;;;;5056369;28;20044;-53
2022/08/11 01:48:30;;;;;;;5.40;3.67;;;;;;;;;;5052708;28;20021;-52
2022/08/11 01:51:03;;;;;;;7.47;3.05;;;;;;;;;;5034654;28;20055;-52
2022/08/11 01:53:52;;;;;;;9.98;3.53;;;;;;;;;;5034555;28;20102;-52
2022/08/11 01:56:25;;;;;;;6.85;3.67;;;;;;;;;;5056384;28;20499;-54
2022/08/11 01:58:57;;;;;;;8.52;4.28;;;;;;;;;;5052589;28;20077;-57
2022/08/11 02:01:32;;;;;;;6.72;3.55;;;;;;;;;;5053026;28;20036;-54
2022/08/11 02:04:04;;;;;;;4.72;3.30;;;;;;;;;;5057898;28;20040;-52
2022/08/11 02:09:25;;;;;;;6.88;3.88;;;;;;;;;;5048131;28;20117;-53
2022/08/11 02:11:55;;;;;;;12.05;3.95;;;;;;;;;;5045985;28;20029;-55
2022/08/11 02:14:28;;;;;;;5.93;3.60;;;;;;;;;;5034361;28;20033;-53
2022/08/11 02:17:06;;;;;;;5.60;3.40;;;;;;;;;;5055716;28;20032;-54
2022/08/11 02:25:39;;;;;;;10.52;4.22;;;;;;;;;;5044727;28;20043;-52
2022/08/11 02:28:12;;;;;;;8.18;3.70;;;;;;;;;;5059079;28;20021;-55
2022/08/11 02:30:41;;;;;;;12.25;4.82;;;;;;;;;;5053275;28;20021;-54
2022/08/11 02:33:24;;;;;;;7.97;3.70;;;;;;;;;;5052791;28;20120;-55
2022/08/11 02:36:09;;;;;;;6.30;4.35;;;;;;;;;;5052731;28;20029;-54
2022/08/11 02:38:42;;;;;;;7.60;3.80;;;;;;;;;;5052771;28;20513;-53
2022/08/11 02:44:10;;;;;;;8.25;4.22;;;;;;;;;;5051791;28;20043;-52
2022/08/11 02:46:56;;;;;;;7.72;4.65;;;;;;;;;;5051905;28;20390;-54
2022/08/11 02:49:53;;;;;;;11.10;5.53;;;;;;;;;;5050886;28;20056;-54
2022/08/11 02:52:28;;;;;;;6.40;4.45;;;;;;;;;;5051232;28;20509;-51
2022/08/11 02:55:13;;;;;;;8.70;4.90;;;;;;;;;;5035183;28;20028;-56
2022/08/11 02:57:59;;;;;;;10.05;6.25;;;;;;;;;;5044420;28;20032;-55
2022/08/11 03:00:26;;;;;;;9.63;4.95;;;;;;;;;;5033799;28;20087;-54
2022/08/11 03:03:06;;;;;;;7.22;4.78;;;;;;;;;;5052550;28;20025;-51
2022/08/11 03:05:43;;;;;;;8.95;5.57;;;;;;;;;;5055253;28;20036;-54
2022/08/11 03:08:22;;;;;;;7.45;4.95;;;;;;;;;;5056743;28;20017;-54
2022/08/11 03:16:47;;;;;;;8.23;4.68;;;;;;;;;;5051304;28;20060;-55
2022/08/11 03:19:15;;;;;;;9.75;5.22;;;;;;;;;;5051088;28;20065;-56
2022/08/11 03:21:45;;;;;;;9.38;5.50;;;;;;;;;;5033169;28;20025;-54
2022/08/11 03:24:15;;;;;;;9.60;4.45;;;;;;;;;;5033176;28;20507;-57
2022/08/11 03:27:04;;;;;;;7.32;4.40;;;;;;;;;;5051156;28;20033;-55
2022/08/11 03:29:30;;;;;;;9.48;3.83;;;;;;;;;;5051015;28;20014;-52
2022/08/11 03:32:01;;;;;;;10.00;4.00;;;;;;;;;;5050772;28;20025;-59
2022/08/11 03:34:29;;;;;;;10.63;4.65;;;;;;;;;;5033574;28;20572;-56
2022/08/11 03:36:55;;;;;;;8.40;4.03;;;;;;;;;;5050786;28;20028;-55
2022/08/11 03:39:39;;;;;;;4.73;3.80;;;;;;;;;;5051199;28;20033;-54
2022/08/11 03:42:05;;;;;;;6.65;4.35;;;;;;;;;;5050013;28;20037;-54
2022/08/11 03:44:41;;;;;;;7.43;4.27;;;;;;;;;;5057629;28;20075;-56
2022/08/11 03:47:30;;;;;;;6.38;4.18;;;;;;;;;;5050925;28;20542;-52
2022/08/11 03:50:15;;;;;;;9.25;4.50;;;;;;;;;;5054478;28;20021;-51
2022/08/11 03:52:59;;;;;;;12.30;4.43;;;;;;;;;;5054894;28;20051;-52
2022/08/11 03:55:44;;;;;;;9.02;4.43;;;;;;;;;;5054951;28;20032;-56
2022/08/11 03:58:23;;;;;;;24.52;6.47;;;;;;;;;;5054962;28;20021;-53
2022/08/11 04:01:07;;;;;;;8.80;4.45;;;;;;;;;;5050771;28;20040;-54
2022/08/11 04:03:52;;;;;;;6.60;3.97;;;;;;;;;;5035741;28;20041;-56
2022/08/11 04:06:18;;;;;;;7.60;3.92;;;;;;;;;;5042409;28;20406;-57
2022/08/11 04:08:57;;;;;;;7.70;4.23;;;;;;;;;;5054972;28;20092;-57
2022/08/11 04:11:32;;;;;;;5.50;3.63;;;;;;;;;;5054602;28;20052;-53
2022/08/11 04:17:18;;;;;;;7.38;3.85;;;;;;;;;;5053547;28;20028;-54
2022/08/11 04:19:56;;;;;;;10.45;4.70;;;;;;;;;;5054110;28;20025;-53
2022/08/11 04:22:29;;;;;;;9.63;3.65;;;;;;;;;;5054677;28;20100;-51
2022/08/11 04:25:13;;;;;;;4.78;4.10;;;;;;;;;;5053881;28;20035;-51
2022/08/11 04:27:39;;;;;;;8.40;4.28;;;;;;;;;;5054040;28;20029;-55
2022/08/11 04:30:13;;;;;;;8.13;4.10;;;;;;;;;;5054341;28;20426;-55
2022/08/11 04:32:59;;;;;;;5.82;3.47;;;;;;;;;;5054352;28;20025;-51
2022/08/11 04:35:34;;;;;;;11.20;4.20;;;;;;;;;;5013222;28;20041;-56
2022/08/11 04:38:14;;;;;;;6.95;3.40;;;;;;;;;;5054034;28;20067;-58
2022/08/11 04:40:40;;;;;;;7.85;3.75;;;;;;;;;;5054089;28;20100;-57
2022/08/11 04:43:21;;;;;;;7.53;3.43;;;;;;;;;;5053197;28;20107;-56
2022/08/11 04:46:05;;;;;;;5.75;3.50;;;;;;;;;;5054306;28;20028;-54
2022/08/11 05:03:22;;;;;;;5.43;3.55;;;;;;;;;;5053868;28;20122;-46
2022/08/11 05:05:57;;;;;;;7.10;4.25;;;;;;;;;;5053727;28;20519;-46
2022/08/11 05:08:23;;;;;;;10.93;3.00;;;;;;;;;;5053698;28;20028;-48
2022/08/11 05:11:07;;;;;;;3.83;2.60;;;;;;;;;;5053921;28;20078;-46
2022/08/11 05:36:06;;;;;;;11.95;3.80;;;;;;;;;;5053172;28;20040;-57
2022/08/11 05:58:01;;;;;;;8.02;3.90;;;;;;;;;;5052706;28;20040;-59
2022/08/11 06:00:27;;;;;;;10.18;3.40;;;;;;;;;;5052483;28;20021;-57
2022/08/11 06:02:55;;;;;;;8.70;3.63;;;;;;;;;;5034573;28;20090;-56
2022/08/11 06:05:21;;;;;;;8.25;4.45;;;;;;;;;;5037138;28;20031;-59
2022/08/11 06:07:48;;;;;;;12.45;4.72;;;;;;;;;;5064520;28;20450;-57
2022/08/11 06:10:23;;;;;;;10.77;3.17;;;;;;;;;;5052186;28;20039;-58
2022/08/11 06:12:52;;;;;;;12.05;3.55;;;;;;;;;;5052502;28;20379;-57
2022/08/11 06:15:18;;;;;;;7.85;3.58;;;;;;;;;;5052417;28;20021;-58
2022/08/11 06:17:45;;;;;;;14.70;4.07;;;;;;;;;;5052085;28;20021;-58
2022/08/11 06:20:11;;;;;;;7.93;3.55;;;;;;;;;;5051847;28;20033;-58
2022/08/11 06:22:42;;;;;;;6.30;3.75;;;;;;;;;;5051902;28;20017;-57
2022/08/11 06:25:09;;;;;;;8.27;3.15;;;;;;;;;;5051223;28;20758;-58
2022/08/11 06:27:37;;;;;;;10.68;3.30;;;;;;;;;;5051842;28;20105;-58
2022/08/11 06:30:12;;;;;;;11.43;3.75;;;;;;;;;;5052166;28;20032;-61
2022/08/11 06:32:38;;;;;;;6.43;3.10;;;;;;;;;;5051491;28;20025;-54
2022/08/11 06:35:08;;;;;;;7.45;2.63;;;;;;;;;;5051720;28;20083;-53
2022/08/11 06:37:44;;;;;;;18.27;3.40;;;;;;;;;;5051849;28;20028;-54
2022/08/11 06:40:22;;;;;;;10.18;2.80;;;;;;;;;;5051670;28;20029;-54
2022/08/11 06:42:57;;;;;;;7.38;2.75;;;;;;;;;;5051333;28;20433;-54
2022/08/11 06:45:24;;;;;;;7.43;2.80;;;;;;;;;;5052101;28;20021;-52
2022/08/11 06:47:51;;;;;;;4.35;3.03;;;;;;;;;;5051732;28;20391;-53
2022/08/11 06:53:09;;;;;;;7.22;3.03;;;;;;;;;;5052014;28;20036;-56
2022/08/11 07:01:12;;;;;;;6.63;2.63;;;;;;;;;;5051784;28;20040;-56
2022/08/11 07:03:42;;;;;;;6.68;2.50;;;;;;;;;;5050292;28;20027;-54
2022/08/11 07:06:27;;;;;;;3.20;2.05;;;;;;;;;;5050914;28;20025;-55
2022/08/11 07:28:54;;;;;;;4.90;2.50;;;;;;;;;;5051667;28;20151;-53
2022/08/11 07:28:54;;;;;;;7.75;3.20;;;;;;;;;;5051183;28;20569;-53
2022/08/11 07:31:24;;;;;;;8.68;2.60;;;;;;;;;;5051186;28;20086;-56
2022/08/11 07:33:52;;;;;;;5.55;2.38;;;;;;;;;;5051243;28;20552;-53
2022/08/11 07:36:18;;;;;;;4.43;2.97;;;;;;;;;;5050466;28;20021;-56
2022/08/11 07:38:50;;;;;;;5.68;2.20;;;;;;;;;;5051196;28;20033;-56
2022/08/11 07:41:21;;;;;;;3.70;2.67;;;;;;;;;;5050750;28;20065;-55
2022/08/11 07:43:55;;;;;;;5.18;2.08;;;;;;;;;;5051106;28;20119;-56
2022/08/11 07:54:38;;;;;;;7.55;2.47;;;;;;;;;;5049356;28;20036;-55
2022/08/11 08:19:12;;;;;;;8.02;1.65;;;;;;;;;;5050854;28;20118;-55
2022/08/11 08:21:38;;;;;;;8.50;1.83;;;;;;;;;;5050797;28;20017;-53
2022/08/11 08:24:06;;;;;;;20.00;3.35;;;;;;;;;;5050434;28;20120;-57
2022/08/11 08:32:03;;;;;;;3.75;1.20;;;;;;;;;;5051134;28;20071;-53
2022/08/11 08:34:29;;;;;;;;;;;;;;;;;;5052583;28;20025;-53
2022/08/11 08:36:55;;;;;;;4.78;1.45;;;;;;;;;;5036583;28;19904;-53
2022/08/11 08:39:22;;;;;;;5.18;2.00;;;;;;;;;;5053924;28;20033;-57
2022/08/11 08:41:55;;;;;;;8.57;1.55;;;;;;;;;;5054189;28;20078;-55
2022/08/11 08:44:23;;;;;;;7.25;2.00;;;;;;;;;;5053827;28;20025;-55
2022/08/11 08:46:51;;;;;;;2.58;1.50;;;;;;;;;;5054079;28;20213;-52
2022/08/11 08:49:21;;;;;;;6.72;1.38;;;;;;;;;;5054052;28;20055;-54
2022/08/11 08:51:52;;;;;;;5.97;1.75;;;;;;;;;;5053979;28;20033;-55
2022/08/11 08:54:24;;;;;;;4.80;1.83;;;;;;;;;;5053751;28;20030;-53
2022/08/11 08:56:54;;;;;;;4.70;2.72;;;;;;;;;;5053802;28;20088;-51
2022/08/11 08:59:22;;;;;;;4.80;1.38;;;;;;;;;;5053904;28;20060;-54
2022/08/11 09:01:53;;;;;;;7.75;1.85;;;;;;;;;;5053618;28;20029;-52
2022/08/11 09:04:20;;;;;;;4.70;1.60;;;;;;;;;;5053734;28;20437;-53
2022/08/11 09:06:46;;;;;;;5.32;1.50;;;;;;;;;;5035795;28;20160;-55
2022/08/11 09:09:13;;;;;;;;;;;;;;;;;;5053874;28;20461;-54
2022/08/11 09:11:49;;;;;;;2.95;1.58;;;;;;;;;;5035765;28;19917;-52
2022/08/11 09:14:15;;;;;;;4.28;1.42;;;;;;;;;;5053190;28;20035;-53
2022/08/11 09:16:43;;;;;;;;;;;;;;;;;;5054137;28;20029;-56
2022/08/11 09:19:09;;;;;;;3.03;1.55;;;;;;;;;;5053160;28;19951;-56
2022/08/11 09:21:38;;;;;;;7.20;2.28;;;;;;;;;;5053367;28;20040;-56
2022/08/11 09:27:02;;;;;;;6.07;1.52;;;;;;;;;;5053670;28;20036;-53
2022/08/11 09:29:31;;;;;;;3.17;1.73;;;;;;;;;;5053296;28;20040;-54
2022/08/11 09:31:58;;;;;;;6.47;2.17;;;;;;;;;;5052993;28;20053;-54
2022/08/11 09:34:25;;;;;;;4.95;2.05;;;;;;;;;;5052902;28;20025;-55
2022/08/11 09:44:45;;;;;;;2.65;1.65;;;;;;;;;;5053311;28;20146;-53
2022/08/11 09:45:10;;;;;;;4.57;1.77;;;;;;;;;;5052104;28;20067;-56
2022/08/11 09:47:37;;;;;;;4.05;2.03;;;;;;;;;;5034896;28;20059;-53
2022/08/11 09:50:04;;;;;;;5.10;1.65;;;;;;;;;;5052710;28;20082;-52
2022/08/11 09:52:34;;;;;;;7.45;1.75;;;;;;;;;;5052875;28;20032;-52
2022/08/11 09:55:00;;;;;;;4.68;1.67;;;;;;;;;;5052580;28;20056;-52
2022/08/11 10:00:13;;;;;;;2.92;1.55;;;;;;;;;;5052485;28;20023;-52
2022/08/11 10:02:42;;;;;;;12.23;2.45;;;;;;;;;;5051737;28;20024;-60
2022/08/11 10:07:54;;;;;;;4.82;1.70;;;;;;;;;;5052598;28;20086;-60
2022/08/11 10:10:22;;;;;;;5.38;1.52;;;;;;;;;;5052529;28;20029;-51
2022/08/11 10:12:55;;;;;;;8.25;2.03;;;;;;;;;;5052084;28;20434;-50
2022/08/11 10:15:34;;;;;;;5.18;1.50;;;;;;;;;;5052323;28;20025;-52
2022/08/11 10:20:49;;;;;;;3.63;1.50;;;;;;;;;;5052274;28;20075;-54
2022/08/11 10:28:47;;;;;;;4.93;1.88;;;;;;;;;;5052517;28;20039;-56
2022/08/11 10:34:02;;;;;;;2.75;1.30;;;;;;;;;;5051950;28;20473;-59
2022/08/11 10:36:28;;;;;;;5.30;2.33;;;;;;;;;;5034136;28;20029;-58
2022/08/11 10:38:55;;;;;;;11.18;2.50;;;;;;;;;;5051931;28;20036;-58
2022/08/11 10:44:08;;;;;;;8.90;1.50;;;;;;;;;;5051796;28;20057;-61
2022/08/11 10:49:20;;;;;;;2.67;1.50;;;;;;;;;;5051305;28;20419;-52
2022/08/11 11:00:05;;;;;;;3.45;2.05;;;;;;;;;;5051317;28;20086;-63
2022/08/11 11:02:31;;;;;;;4.43;1.50;;;;;;;;;;5056323;28;20031;-62
2022/08/11 11:05:01;;;;;;;2.10;1.85;;;;;;;;;;5060654;28;20464;-63
2022/08/11 11:07:32;;;;;;;56.83;5.82;;;;;;;;;;5061685;28;20017;-62
2022/08/11 11:10:02;;;;;;;3.65;1.10;;;;;;;;;;5051496;28;20033;-62
2022/08/11 11:18:10;;;;;;;6.00;4.55;;;;;;;;;;5052150;28;20825;-61
2022/08/11 11:20:43;;;;;;;1.85;1.50;;;;;;;;;;5033072;28;20025;-62
2022/08/11 11:23:18;;;;;;;6.20;1.85;;;;;;;;;;5048056;28;20040;-60
2022/08/11 11:26:06;;;;;;;4.75;1.70;;;;;;;;;;5051075;28;20021;-53
2022/08/11 11:28:33;;;;;;;5.13;1.50;;;;;;;;;;5051024;28;20099;-53
2022/08/11 11:31:02;;;;;;;1.55;1.00;;;;;;;;;;5053457;28;20035;-54
2022/08/11 11:33:28;;;;;;;3.88;1.10;;;;;;;;;;5050744;28;20021;-55
2022/08/11 11:36:08;;;;;;;2.10;1.10;;;;;;;;;;5051459;28;20032;-55
2022/08/11 11:38:34;;;;;;;2.92;1.45;;;;;;;;;;5056180;28;20091;-54
2022/08/11 11:43:45;;;;;;;1.30;1.20;;;;;;;;;;5050853;28;20741;-51
2022/08/11 11:46:12;;;;;;;1.35;0.80;;;;;;;;;;5050817;28;20091;-56
2022/08/11 11:48:40;;;;;;;6.45;1.20;;;;;;;;;;5052240;28;20104;-56
2022/08/11 11:51:06;;;;;;;1.58;1.20;;;;;;;;;;5051069;28;20029;-56
2022/08/11 11:53:32;;;;;;;;;;;;;;;;;;5051272;28;20130;-54
2022/08/11 11:55:59;;;;;;;12.40;1.60;;;;;;;;;;5050870;28;19905;-53
2022/08/11 12:01:18;;;;;;;2.65;1.25;;;;;;;;;;5050934;28;20039;-54
2022/08/11 12:03:49;;;;;;;4.25;1.10;;;;;;;;;;5050555;28;20037;-52
2022/08/11 12:06:17;;;;;;;1.45;1.00;;;;;;;;;;5051214;28;20128;-52
2022/08/11 12:08:44;;;;;;;3.00;1.80;;;;;;;;;;5051627;28;20029;-52
2022/08/11 12:13:57;;;;;;;1.88;1.00;;;;;;;;;;5056935;28;20087;-51
2022/08/11 12:16:23;;;;;;;3.70;1.55;;;;;;;;;;5054366;28;20484;-54
2022/08/11 12:18:55;;;;;;;1.83;1.00;;;;;;;;;;5054446;28;20033;-52
2022/08/11 12:21:22;;;;;;;6.90;1.50;;;;;;;;;;5054648;28;20021;-52
2022/08/11 12:29:18;;;;;;;2.65;1.15;;;;;;;;;;5061498;28;20117;-56
2022/08/11 12:31:45;;;;;;;3.92;1.25;;;;;;;;;;5053371;28;20044;-51
2022/08/11 12:34:12;;;;;;;2.50;1.00;;;;;;;;;;5036165;28;20509;-54
2022/08/11 12:36:42;;;;;;;2.75;1.20;;;;;;;;;;5053780;28;20029;-54
2022/08/11 12:39:10;;;;;;;6.35;1.10;;;;;;;;;;5036354;28;20029;-52
2022/08/11 12:47:12;;;;;;;3.50;1.50;;;;;;;;;;5063201;28;20035;-52
2022/08/11 12:52:29;;;;;;;8.00;1.20;;;;;;;;;;5054140;28;20052;-51
2022/08/11 12:55:12;;;;;;;5.40;1.88;;;;;;;;;;5061058;28;20040;-54
2022/08/11 13:05:57;;;;;;;1.85;1.20;;;;;;;;;;5061943;28;20087;-53
2022/08/11 13:08:24;;;;;;;1.73;1.00;;;;;;;;;;5055000;28;20112;-56
2022/08/11 13:13:37;;;;;;;3.22;1.38;;;;;;;;;;5057799;28;20079;-52
2022/08/11 13:16:03;;;;;;;4.63;1.20;;;;;;;;;;5053876;28;20063;-53
2022/08/11 13:18:29;;;;;;;;;;;;;;;;;;5055375;28;20032;-54
2022/08/11 13:20:56;;;;;;;5.38;1.25;;;;;;;;;;5054100;28;19906;-54
2022/08/11 13:23:24;;;;;;;1.30;0.90;;;;;;;;;;5058776;28;20090;-55
2022/08/11 13:25:51;;;;;;;1.58;1.00;;;;;;;;;;5054692;28;20108;-55
2022/08/11 13:28:20;;;;;;;3.72;1.20;;;;;;;;;;5053217;28;20670;-52
2022/08/11 13:33:32;;;;;;;5.97;1.38;;;;;;;;;;5053654;28;20040;-52
2022/08/11 13:35:58;;;;;;;3.25;1.10;;;;;;;;;;5035365;28;20391;-55
2022/08/11 13:38:25;;;;;;;4.80;1.27;;;;;;;;;;5053247;28;20105;-52
2022/08/11 13:40:52;;;;;;;4.72;1.13;;;;;;;;;;5060548;28;20037;-53
2022/08/11 13:43:19;;;;;;;2.15;1.38;;;;;;;;;;5035044;28;20112;-52
2022/08/11 13:45:46;;;;;;;3.58;1.40;;;;;;;;;;5052061;28;20391;-50
2022/08/11 13:48:14;;;;;;;3.00;0.95;;;;;;;;;;5049697;28;20028;-50
2022/08/11 13:53:26;;;;;;;5.90;1.20;;;;;;;;;;5052687;28;20082;-57
2022/08/11 13:55:53;;;;;;;6.40;1.83;;;;;;;;;;5034649;28;20078;-54
2022/08/11 13:58:19;;;;;;;9.18;1.95;;;;;;;;;;5052613;28;20513;-51
2022/08/11 14:00:48;;;;;;;1.20;1.10;;;;;;;;;;5052395;28;20395;-53
2022/08/11 14:03:16;;;;;;;4.15;1.48;;;;;;;;;;5049053;28;20572;-52
2022/08/11 14:05:47;;;;;;;2.88;1.20;;;;;;;;;;5059420;28;20020;-56
2022/08/11 14:08:17;;;;;;;1.90;1.45;;;;;;;;;;5050663;28;20025;-53
2022/08/11 14:10:45;;;;;;;4.15;1.27;;;;;;;;;;5032289;28;20017;-52
2022/08/11 14:16:06;;;;;;;7.22;1.77;;;;;;;;;;5052426;28;20044;-54
2022/08/11 14:18:34;;;;;;;3.38;1.85;;;;;;;;;;5026766;28;20021;-53
2022/08/11 14:24:04;;;;;;;6.40;1.35;;;;;;;;;;5048110;28;20070;-54
2022/08/11 14:26:37;;;;;;;5.53;1.35;;;;;;;;;;5053376;28;20070;-55
2022/08/11 14:29:07;;;;;;;1.73;1.17;;;;;;;;;;5071244;28;20539;-54
2022/08/11 14:31:34;;;;;;;0.98;0.98;;;;;;;;;;5066277;28;20028;-55
2022/08/11 14:34:04;;;;;;;2.45;1.35;;;;;;;;;;5068989;28;20052;-53
2022/08/11 14:36:34;;;;;;;3.42;1.15;;;;;;;;;;5056148;28;20024;-54
2022/08/11 14:39:01;;;;;;;3.15;1.13;;;;;;;;;;5072297;28;20035;-55
2022/08/11 14:47:05;;;;;;;1.98;1.60;;;;;;;;;;5047637;28;20123;-52
2022/08/11 14:49:35;;;;;;;3.45;1.17;;;;;;;;;;5071995;28;20031;-53
2022/08/11 14:52:07;;;;;;;1.77;1.10;;;;;;;;;;5072072;28;20021;-54
2022/08/11 14:57:18;;;;;;;2.40;0.95;;;;;;;;;;5052677;28;20146;-53
2022/08/11 14:59:48;;;;;;;6.68;1.33;;;;;;;;;;5051288;28;20079;-53
2022/08/11 15:05:01;;;;;;;4.77;1.50;;;;;;;;;;5062334;28;20043;-50
2022/08/11 15:07:31;;;;;;;2.42;1.10;;;;;;;;;;5057537;28;20062;-50
2022/08/11 15:09:57;;;;;;;2.30;1.33;;;;;;;;;;5034110;28;20056;-52
2022/08/11 15:12:24;;;;;;;4.78;1.52;;;;;;;;;;5071132;28;20028;-52
2022/08/11 15:17:34;;;;;;;1.33;1.20;;;;;;;;;;5051501;28;20102;-52
2022/08/11 15:25:33;;;;;;;12.70;1.73;;;;;;;;;;5049554;28;20044;-53
2022/08/11 15:39:07;;;;;;;5.82;1.50;;;28.20;43.20;;;;;;5055137;28;20066;-51
2022/08/11 15:47:19;;;;;;;2.60;1.58;;;;;;;;;;5055577;28;20036;-51
2022/08/11 15:49:49;;;;;;;5.10;1.00;;;;;;;;;;5055146;28;20024;-51
2022/08/11 15:52:17;;;;;;;4.18;1.00;;;;;;;;;;5054524;28;20021;-57
2022/08/11 15:54:45;;;;;;;4.63;1.52;;;;;;;;;;5054291;28;20036;-56
2022/08/11 16:05:19;;;;;;;1.45;1.30;;;;;;;;;;5054958;28;20434;-53
2022/08/11 16:07:48;;;;;;;5.10;1.65;;;;;;;;;;5071430;28;20028;-53
2022/08/11 16:10:20;;;;;;;2.58;1.27;;;;;;;;;;5074852;28;20020;-57
2022/08/11 16:18:40;;;;;;;1.70;1.02;;;;;;;;;;5056284;28;20064;-53
2022/08/11 16:21:14;;;;;;;6.45;1.70;;;;;;;;;;5054851;28;20025;-52
2022/08/11 16:23:43;;;;;;;1.70;1.23;;;46.60;21.50;;;;;;5054500;28;20119;-52
2022/08/11 16:26:11;;;;;;;4.93;1.27;;;37.20;27.30;;;;;;5054771;28;20044;-54
2022/08/11 16:28:39;;;;;;;3.05;1.15;;;36.80;27.60;;;;;;5054721;28;20546;-54
2022/08/11 16:31:09;;;;;;;7.72;1.63;;;36.80;27.50;;;;;;5054715;28;20056;-54
2022/08/11 16:33:40;;;;;;;2.67;1.25;;;36.70;27.20;;;;;;5074225;28;20028;-55
2022/08/11 16:38:53;;;;;;;6.60;1.58;;;;;;;;;;5071929;28;20071;-55
2022/08/11 16:46:58;;;;;;;5.53;1.60;;;;;;;;;;5059788;28;20112;-52
2022/08/11 16:47:00;;;;;;;4.28;1.20;;;;;;;;;;5065668;28;20541;-53
2022/08/11 16:49:30;;;;;;;1.67;1.25;;;;;;;;;;5074246;28;20108;-55
2022/08/11 16:51:56;;;;;;;6.93;1.15;;;;;;;;;;5056047;28;20036;-56
2022/08/11 16:54:22;;;;;;;2.25;1.25;;;36.50;27.00;;;;;;5050399;28;20104;-55
2022/08/11 16:56:52;;;;;;;3.80;1.30;;;;;;;;;;5053847;28;20112;-54
2022/08/11 16:59:30;;;;;;;3.55;1.40;;;;;;;;;;5051985;28;20028;-52
2022/08/11 17:02:01;;;;;;;1.35;1.20;;;;;;;;;;5050338;28;20064;-52
2022/08/11 17:13:07;;;;;;;3.60;1.75;;;;;;;;;;5110525;22;20144;-59
2022/08/11 17:18:41;;;;;;;3.33;1.40;;;;;;;;;;5011632;28;20540;-58
2022/08/11 17:21:12;;;;;;;2.40;1.15;;;35.80;28.30;;;;;;5070943;28;20411;-59
2022/08/11 17:23:45;;;;;;;4.38;1.80;;;;;;;;;;5073163;28;20047;-59
2022/08/11 17:26:12;;;;;;;2.75;1.40;;;;;;;;;;5056003;28;20033;-59
2022/08/11 17:28:40;;;;;;;7.50;1.95;;;;;;;;;;5053588;28;20021;-58
2022/08/11 17:36:41;;;;;;;4.55;1.92;;;;;;;;;;5033874;28;20356;-59
2022/08/11 17:39:08;;;;;;;4.55;1.83;;;;;;;;;;5033351;28;20017;-59
2022/08/11 17:49:51;;;;;;;5.40;1.80;;;;;;;;;;5059693;28;20792;-57
2022/08/11 18:00:33;;;;;;;3.47;1.60;;;;;;;;;;5052842;28;20036;-59
2022/08/11 18:05:47;;;;;;;5.47;2.15;;;;;;;;;;5053399;28;20052;-59
